Portada
METAR-TAF:

METAR-TAF

Aeroports :

Paraguaná, Veneçuela

latitud: 11-47N, longitud: 070-09W, altitud: 23 m

METAR: manca

Hora: 14:10 (18:10 UTC)

Pronòstic

L'informe es va fer fa 2 hores i 10 minuts, a les 16:00 UTC
Pronòstic vàlid del 24 a les 18 UTC al 25 a les 18 UTC
Vent 3 kt del Est
Visibilitat 10 km o més
Núvols disperses a una alçada de 1600 ft
Evolucionant progressivament
l' 24 a les 18 UTC al 24 a les 22 UTC
Vent 6 kt del Est
Visibilitat 10 km o més
Núvols disperses a una alçada de 1600 ft

TAF: SVJC 241600Z 2418/2518 10003KT 9999 SCT016 TX34/2418Z TN25/2408Z BECMG 2418/2422 09006KT 9999 SCT016

Observacions i pronòstics meteorològics de més de 4000 aeroports (METAR i TAF).

Les estacions disponibles són els punts grocs i vermells al mapa.

Posi el ratolí al punt desitjat per veure el nom de l'estació.

Feu clic per veure les observacions i els pronòstics meteorològics.

Per canviar el mapa: feu clic els botons verds amb una creu de color negre per apropar; al botó verd amb un guió per allunyar la imatge; o en les fletxes verdes per a mapes adjacents.


METAR-TAF: